Ytteroyane Fyr, Norway

9:51 PM CET on February 06, 2016 (GMT +0100)
Floro | | Change Station
CLOSE
Current Station
Airport
Location: Floro,
Elevation: 30 ft
Nearby Weather Stations

Elev 30 ft 61.58 °N, 5.02 °E | Updated 31 minutes ago

Clear
Clear
41 °F
Feels Like 32 °F
N
17
Wind Variable Wind from ESE

Today
High -- | Low -- °F
--% Chance of Precip.
Yesterday
High -- | Low -- °F
Precip. -- in
Pressure 29.24 in
Visibility 6.2 miles
Clouds
Windchill 32 °F
Dew Point 32 °F
Humidity 70%
Rainfall 0.00 in
Snow Depth Not available.
8:52 AM 4:59 PM
Waning Crescent, 4% visible
METAR ENFL 062020Z AUTO 11015KT 9999NDV NSC 05/M00 Q0990
Pressure 29.24 in
Visibility 6.2 miles
Clouds
Windchill 32 °F
Dew Point 32 °F
Humidity 70%
Rainfall 0.00 in
Snow Depth Not available.
8:52 AM 4:59 PM
Waning Crescent, 4% visible
METAR ENFL 062020Z AUTO 11015KT 9999NDV NSC 05/M00 Q0990

10-Day Weather Forecast

Almanac

Astronomy

Feb. 06, 2016 Rise Set
Actual Time
Civil Twilight
Nautical Twilight
Astronomical Twilight
Moon
Length of Visible Light
Length of Day
Tomorrow will be .
, % of the Moon is Illuminated

Today's Extremes

Country Highs Country Lows

Community

WunderPhotos

Upload Photos

1,891,046 photos uploaded!

WunderBlog® & News

Nearby

Air Quality

  Air Quality AQ Index Pollutant
Not available.

Snow Depth

Station Depth Elevation

Earthquake Activity

City Distance Mag. Time & Date
Minimum magnitude displayed is 2.5.

Coastal Water Temperatures

Place Temperature

Stations

Nearby Weather Stations

Station Location Temp. Windchill Dew Point Humidity Wind Precip. Elev Updated Type